Have a Safe July 4th! 

Flight Track Log - Related Links

Times and Time Zones

All times are in EDT time to prevent confusion due to time zone crossing. See the CTL21 flight status page for this flight to view local times or setup timezone preferences in your user account.

Time Position Orientation Groundspeed Altitude Reporting Facility
EDT Latitude Longitude Course Direction KTS MPH feet Rate Location/Type
Thu 05:08:16 PM 42.1708 -85.4706 118° Southeast 156 180 4,900  Level Chicago Center
Thu 05:09:18 PM 42.1517 -85.4197 117° Southeast 154 177 5,900 919 Climbing Chicago Center
Thu 05:10:20 PM 42.1303 -85.3717 121° Southeast 151 174 6,800 823 Climbing Chicago Center
Thu 05:11:00 PM 42.0816 -85.1955 117° Southeast  Level FlightAware Approximate
Thu 05:11:22 PM 42.1117 -85.3203 116° Southeast 151 174 7,600  Level Chicago Center
Thu 05:12:00 PM 42.0587 -85.1347 117° Southeast  Level FlightAware Approximate
Thu 05:12:24 PM 42.0906 -85.2686 119° Southeast 155 178 8,300  Level Chicago Center
Thu 05:13:26 PM 42.0706 -85.2156 117° Southeast 157 181 9,000 387 Climbing Chicago Center
Thu 05:14:28 PM 42.0458 -85.1556 119° Southeast 174 200 9,100  Climbing Chicago Center
Thu 05:15:30 PM 42.0147 -85.0767 118° Southeast 193 222 9,000  Descending Chicago Center
Thu 05:16:32 PM 41.9917 -85.0125 116° Southeast 192 221 9,100  Climbing Chicago Center
Thu 05:17:34 PM 41.9658 -84.9489 119° Southeast 192 221 9,000 -48 Descending Chicago Center
Thu 05:18:37 PM 41.9392 -84.8856 119° Southeast 194 223 9,000  Level Chicago Center
Thu 05:19:39 PM 41.9147 -84.8189 116° Southeast 197 227 9,000  Level Chicago Center
Thu 05:21:00 PM 41.9017 -84.7287 101° East  Level FlightAware Approximate
Thu 05:21:43 PM 41.8589 -84.6794 101° East 193 222 9,000  Level Chicago Center
Thu 05:22:45 PM 41.8339 -84.6144 117° Southeast 195 224 9,000  Level Chicago Center
Thu 05:23:47 PM 41.8072 -84.5497 119° Southeast 197 227 9,000  Level Chicago Center
Thu 05:24:49 PM 41.7819 -84.4858 118° Southeast 195 224 9,000 48 Level Chicago Center
Thu 05:25:51 PM 41.7564 -84.4222 118° Southeast 194 223 9,100  Climbing Chicago Center
Thu 05:26:53 PM 41.7308 -84.3597 119° Southeast 192 221 9,000 -48 Descending Chicago Center
Thu 05:27:55 PM 41.7031 -84.2833 116° Southeast 191 220 9,000  Level Chicago Center
Thu 05:28:57 PM 41.6806 -84.2200 115° Southeast 190 219 9,000  Level Chicago Center
Thu 05:30:00 PM 41.6703 -84.1497 101° East 192 221 9,000  Level Chicago Center

Login

Don't have an account? Register now (free) for customized features, flight alerts, and more!